sensor_id;sensor_type;location;lat;lon;timestamp;P1;durP1;ratioP1;P2;durP2;ratioP2
13785;SDS011;47474;48.824;9.384;2022-09-09T00:01:46;1.40;;;1.13;;
13785;SDS011;47474;48.824;9.384;2022-09-09T00:04:18;4.30;;;1.60;;
13785;SDS011;47474;48.824;9.384;2022-09-09T00:06:53;1.90;;;1.30;;
13785;SDS011;47474;48.824;9.384;2022-09-09T00:09:25;4.10;;;1.30;;
13785;SDS011;47474;48.824;9.384;2022-09-09T00:11:56;1.88;;;1.23;;
13785;SDS011;47474;48.824;9.384;2022-09-09T00:14:31;3.35;;;1.52;;
13785;SDS011;47474;48.824;9.384;2022-09-09T00:17:02;2.03;;;1.20;;
13785;SDS011;47474;48.824;9.384;2022-09-09T00:19:33;3.63;;;1.40;;
13785;SDS011;47474;48.824;9.384;2022-09-09T00:22:07;2.70;;;1.30;;
13785;SDS011;47474;48.824;9.384;2022-09-09T00:24:41;2.90;;;1.40;;
13785;SDS011;47474;48.824;9.384;2022-09-09T00:27:14;4.20;;;1.20;;
13785;SDS011;47474;48.824;9.384;2022-09-09T00:29:45;3.70;;;1.20;;
13785;SDS011;47474;48.824;9.384;2022-09-09T00:32:14;1.40;;;1.00;;
13785;SDS011;47474;48.824;9.384;2022-09-09T00:34:48;3.10;;;1.40;;
13785;SDS011;47474;48.824;9.384;2022-09-09T00:37:18;1.10;;;1.00;;
13785;SDS011;47474;48.824;9.384;2022-09-09T00:39:45;3.80;;;1.10;;
13785;SDS011;47474;48.824;9.384;2022-09-09T00:42:15;1.43;;;1.20;;
13785;SDS011;47474;48.824;9.384;2022-09-09T00:44:55;1.55;;;1.05;;
13785;SDS011;47474;48.824;9.384;2022-09-09T00:47:43;2.27;;;1.23;;
13785;SDS011;47474;48.824;9.384;2022-09-09T00:50:22;2.90;;;1.70;;
13785;SDS011;47474;48.824;9.384;2022-09-09T00:52:59;2.72;;;1.20;;
13785;SDS011;47474;48.824;9.384;2022-09-09T00:55:33;2.07;;;1.30;;
13785;SDS011;47474;48.824;9.384;2022-09-09T00:58:09;1.60;;;1.20;;
13785;SDS011;47474;48.824;9.384;2022-09-09T01:00:38;2.45;;;1.35;;
13785;SDS011;47474;48.824;9.384;2022-09-09T01:03:10;1.87;;;1.20;;
13785;SDS011;47474;48.824;9.384;2022-09-09T01:05:46;4.20;;;1.27;;
13785;SDS011;47474;48.824;9.384;2022-09-09T01:08:27;1.20;;;1.10;;
13785;SDS011;47474;48.824;9.384;2022-09-09T01:10:59;1.40;;;1.27;;
13785;SDS011;47474;48.824;9.384;2022-09-09T01:13:29;4.10;;;1.20;;
13785;SDS011;47474;48.824;9.384;2022-09-09T01:15:56;2.58;;;1.00;;
13785;SDS011;47474;48.824;9.384;2022-09-09T01:18:23;4.70;;;1.10;;
13785;SDS011;47474;48.824;9.384;2022-09-09T01:20:55;1.50;;;1.10;;
13785;SDS011;47474;48.824;9.384;2022-09-09T01:23:30;3.67;;;1.60;;
13785;SDS011;47474;48.824;9.384;2022-09-09T01:26:23;2.83;;;1.60;;
13785;SDS011;47474;48.824;9.384;2022-09-09T01:28:52;5.43;;;1.63;;
13785;SDS011;47474;48.824;9.384;2022-09-09T01:31:20;2.00;;;1.10;;
13785;SDS011;47474;48.824;9.384;2022-09-09T01:33:49;2.43;;;1.23;;
13785;SDS011;47474;48.824;9.384;2022-09-09T01:36:18;1.73;;;1.20;;
13785;SDS011;47474;48.824;9.384;2022-09-09T01:38:48;1.60;;;1.23;;
13785;SDS011;47474;48.824;9.384;2022-09-09T01:41:15;2.53;;;1.50;;
13785;SDS011;47474;48.824;9.384;2022-09-09T01:43:43;1.20;;;1.10;;
13785;SDS011;47474;48.824;9.384;2022-09-09T01:46:09;1.53;;;1.30;;
13785;SDS011;47474;48.824;9.384;2022-09-09T01:48:37;3.10;;;1.40;;
13785;SDS011;47474;48.824;9.384;2022-09-09T01:51:04;2.77;;;1.20;;
13785;SDS011;47474;48.824;9.384;2022-09-09T01:53:30;3.03;;;1.30;;
13785;SDS011;47474;48.824;9.384;2022-09-09T01:56:02;3.23;;;1.20;;
13785;SDS011;47474;48.824;9.384;2022-09-09T01:58:35;4.17;;;1.30;;
13785;SDS011;47474;48.824;9.384;2022-09-09T02:01:12;2.63;;;1.47;;
13785;SDS011;47474;48.824;9.384;2022-09-09T02:03:43;3.50;;;1.40;;
13785;SDS011;47474;48.824;9.384;2022-09-09T02:06:13;2.47;;;1.17;;
13785;SDS011;47474;48.824;9.384;2022-09-09T02:08:46;1.60;;;1.40;;
13785;SDS011;47474;48.824;9.384;2022-09-09T02:11:14;2.83;;;1.20;;
13785;SDS011;47474;48.824;9.384;2022-09-09T02:13:42;2.30;;;1.43;;
13785;SDS011;47474;48.824;9.384;2022-09-09T02:16:12;1.93;;;1.40;;
13785;SDS011;47474;48.824;9.384;2022-09-09T02:18:43;10.00;;;1.52;;
13785;SDS011;47474;48.824;9.384;2022-09-09T02:21:13;1.60;;;1.10;;
13785;SDS011;47474;48.824;9.384;2022-09-09T02:23:42;1.30;;;1.20;;
13785;SDS011;47474;48.824;9.384;2022-09-09T02:26:09;4.07;;;1.70;;
13785;SDS011;47474;48.824;9.384;2022-09-09T02:28:38;3.40;;;1.30;;
13785;SDS011;47474;48.824;9.384;2022-09-09T02:31:05;1.30;;;1.20;;
13785;SDS011;47474;48.824;9.384;2022-09-09T02:33:35;2.07;;;1.30;;
13785;SDS011;47474;48.824;9.384;2022-09-09T02:36:03;3.67;;;1.50;;
13785;SDS011;47474;48.824;9.384;2022-09-09T02:38:33;3.83;;;1.77;;
13785;SDS011;47474;48.824;9.384;2022-09-09T02:41:02;1.40;;;1.30;;
13785;SDS011;47474;48.824;9.384;2022-09-09T02:43:30;2.30;;;1.40;;
13785;SDS011;47474;48.824;9.384;2022-09-09T02:45:59;2.03;;;1.30;;
13785;SDS011;47474;48.824;9.384;2022-09-09T02:48:31;1.90;;;1.20;;
13785;SDS011;47474;48.824;9.384;2022-09-09T02:51:05;1.30;;;1.20;;
13785;SDS011;47474;48.824;9.384;2022-09-09T02:53:37;1.30;;;1.20;;
13785;SDS011;47474;48.824;9.384;2022-09-09T02:56:08;1.47;;;1.20;;
13785;SDS011;47474;48.824;9.384;2022-09-09T02:58:36;2.73;;;1.40;;
13785;SDS011;47474;48.824;9.384;2022-09-09T03:01:04;1.90;;;1.30;;
13785;SDS011;47474;48.824;9.384;2022-09-09T03:03:31;2.03;;;1.20;;
13785;SDS011;47474;48.824;9.384;2022-09-09T03:05:59;1.97;;;1.50;;
13785;SDS011;47474;48.824;9.384;2022-09-09T03:08:25;2.60;;;1.00;;
13785;SDS011;47474;48.824;9.384;2022-09-09T03:10:53;1.67;;;1.20;;
13785;SDS011;47474;48.824;9.384;2022-09-09T03:13:20;3.67;;;1.03;;
13785;SDS011;47474;48.824;9.384;2022-09-09T03:15:47;1.73;;;1.20;;
13785;SDS011;47474;48.824;9.384;2022-09-09T03:18:14;2.03;;;1.10;;
13785;SDS011;47474;48.824;9.384;2022-09-09T03:20:41;1.67;;;1.00;;
13785;SDS011;47474;48.824;9.384;2022-09-09T03:23:09;2.67;;;1.30;;
13785;SDS011;47474;48.824;9.384;2022-09-09T03:25:36;2.00;;;1.70;;
13785;SDS011;47474;48.824;9.384;2022-09-09T03:28:03;2.47;;;1.40;;
13785;SDS011;47474;48.824;9.384;2022-09-09T03:30:30;2.73;;;1.40;;
13785;SDS011;47474;48.824;9.384;2022-09-09T03:32:56;2.60;;;1.53;;
13785;SDS011;47474;48.824;9.384;2022-09-09T03:35:23;1.60;;;1.17;;
13785;SDS011;47474;48.824;9.384;2022-09-09T03:37:50;1.73;;;1.50;;
13785;SDS011;47474;48.824;9.384;2022-09-09T03:40:18;2.90;;;1.73;;
13785;SDS011;47474;48.824;9.384;2022-09-09T03:42:45;2.57;;;1.53;;
13785;SDS011;47474;48.824;9.384;2022-09-09T03:45:11;3.17;;;1.47;;
13785;SDS011;47474;48.824;9.384;2022-09-09T03:47:38;1.63;;;1.27;;
13785;SDS011;47474;48.824;9.384;2022-09-09T03:50:04;2.27;;;1.10;;
13785;SDS011;47474;48.824;9.384;2022-09-09T03:52:34;2.03;;;1.20;;
13785;SDS011;47474;48.824;9.384;2022-09-09T03:55:01;1.30;;;1.20;;
13785;SDS011;47474;48.824;9.384;2022-09-09T03:57:29;2.77;;;1.87;;
13785;SDS011;47474;48.824;9.384;2022-09-09T03:59:56;1.33;;;1.20;;
13785;SDS011;47474;48.824;9.384;2022-09-09T04:02:26;1.60;;;1.20;;
13785;SDS011;47474;48.824;9.384;2022-09-09T04:04:52;3.53;;;1.73;;
13785;SDS011;47474;48.824;9.384;2022-09-09T04:07:19;2.23;;;1.37;;
13785;SDS011;47474;48.824;9.384;2022-09-09T04:09:46;3.60;;;1.40;;
13785;SDS011;47474;48.824;9.384;2022-09-09T04:12:23;1.50;;;1.40;;
13785;SDS011;47474;48.824;9.384;2022-09-09T04:14:51;2.03;;;1.07;;
13785;SDS011;47474;48.824;9.384;2022-09-09T04:17:20;1.50;;;1.10;;
13785;SDS011;47474;48.824;9.384;2022-09-09T04:19:47;3.63;;;1.40;;
13785;SDS011;47474;48.824;9.384;2022-09-09T04:22:13;1.97;;;1.30;;
13785;SDS011;47474;48.824;9.384;2022-09-09T04:24:41;2.80;;;1.40;;
13785;SDS011;47474;48.824;9.384;2022-09-09T04:27:07;2.35;;;1.23;;
13785;SDS011;47474;48.824;9.384;2022-09-09T04:29:34;2.55;;;1.05;;
13785;SDS011;47474;48.824;9.384;2022-09-09T04:32:02;1.73;;;1.10;;
13785;SDS011;47474;48.824;9.384;2022-09-09T04:34:29;2.80;;;1.20;;
13785;SDS011;47474;48.824;9.384;2022-09-09T04:36:56;3.73;;;1.10;;
13785;SDS011;47474;48.824;9.384;2022-09-09T04:39:23;1.80;;;1.20;;
13785;SDS011;47474;48.824;9.384;2022-09-09T04:41:51;3.83;;;1.70;;
13785;SDS011;47474;48.824;9.384;2022-09-09T04:44:18;2.73;;;1.40;;
13785;SDS011;47474;48.824;9.384;2022-09-09T04:46:45;3.10;;;1.60;;
13785;SDS011;47474;48.824;9.384;2022-09-09T04:49:13;1.80;;;1.10;;
13785;SDS011;47474;48.824;9.384;2022-09-09T04:51:40;2.83;;;1.40;;
13785;SDS011;47474;48.824;9.384;2022-09-09T04:54:15;1.30;;;1.20;;
13785;SDS011;47474;48.824;9.384;2022-09-09T04:56:47;4.07;;;1.40;;
13785;SDS011;47474;48.824;9.384;2022-09-09T04:59:16;1.70;;;1.20;;
13785;SDS011;47474;48.824;9.384;2022-09-09T05:01:42;2.25;;;1.20;;
13785;SDS011;47474;48.824;9.384;2022-09-09T05:04:09;3.50;;;1.30;;
13785;SDS011;47474;48.824;9.384;2022-09-09T05:06:37;3.63;;;1.13;;
13785;SDS011;47474;48.824;9.384;2022-09-09T05:09:04;1.60;;;1.30;;
13785;SDS011;47474;48.824;9.384;2022-09-09T05:11:39;2.53;;;1.30;;
13785;SDS011;47474;48.824;9.384;2022-09-09T05:14:24;2.57;;;1.20;;
13785;SDS011;47474;48.824;9.384;2022-09-09T05:16:51;2.70;;;1.23;;
13785;SDS011;47474;48.824;9.384;2022-09-09T05:19:28;1.08;;;0.98;;
13785;SDS011;47474;48.824;9.384;2022-09-09T05:22:13;2.20;;;1.10;;
13785;SDS011;47474;48.824;9.384;2022-09-09T05:24:39;1.60;;;1.42;;
13785;SDS011;47474;48.824;9.384;2022-09-09T05:27:07;2.40;;;1.35;;
13785;SDS011;47474;48.824;9.384;2022-09-09T05:29:37;1.30;;;1.15;;
13785;SDS011;47474;48.824;9.384;2022-09-09T05:32:04;3.17;;;1.25;;
13785;SDS011;47474;48.824;9.384;2022-09-09T05:34:30;6.40;;;1.27;;
13785;SDS011;47474;48.824;9.384;2022-09-09T05:36:57;1.67;;;0.95;;
13785;SDS011;47474;48.824;9.384;2022-09-09T05:39:25;2.25;;;1.05;;
13785;SDS011;47474;48.824;9.384;2022-09-09T05:41:52;1.60;;;1.23;;
13785;SDS011;47474;48.824;9.384;2022-09-09T05:44:18;1.42;;;1.00;;
13785;SDS011;47474;48.824;9.384;2022-09-09T05:46:45;2.13;;;1.10;;
13785;SDS011;47474;48.824;9.384;2022-09-09T05:49:12;1.73;;;1.35;;
13785;SDS011;47474;48.824;9.384;2022-09-09T05:51:40;2.00;;;1.02;;
13785;SDS011;47474;48.824;9.384;2022-09-09T05:54:07;1.98;;;1.13;;
13785;SDS011;47474;48.824;9.384;2022-09-09T05:56:35;1.80;;;1.20;;
13785;SDS011;47474;48.824;9.384;2022-09-09T05:59:02;1.17;;;1.08;;
13785;SDS011;47474;48.824;9.384;2022-09-09T06:01:30;1.13;;;1.00;;
13785;SDS011;47474;48.824;9.384;2022-09-09T06:04:00;2.35;;;1.33;;
13785;SDS011;47474;48.824;9.384;2022-09-09T06:06:29;2.13;;;1.10;;
13785;SDS011;47474;48.824;9.384;2022-09-09T06:09:13;2.67;;;1.08;;
13785;SDS011;47474;48.824;9.384;2022-09-09T06:11:51;4.40;;;1.20;;
13785;SDS011;47474;48.824;9.384;2022-09-09T06:14:19;1.45;;;1.10;;
13785;SDS011;47474;48.824;9.384;2022-09-09T06:16:49;1.40;;;1.30;;
13785;SDS011;47474;48.824;9.384;2022-09-09T06:19:30;2.38;;;1.30;;
13785;SDS011;47474;48.824;9.384;2022-09-09T06:21:59;1.40;;;1.15;;
13785;SDS011;47474;48.824;9.384;2022-09-09T06:24:26;1.52;;;1.10;;
13785;SDS011;47474;48.824;9.384;2022-09-09T06:26:57;1.88;;;1.30;;
13785;SDS011;47474;48.824;9.384;2022-09-09T06:29:30;1.77;;;1.20;;
13785;SDS011;47474;48.824;9.384;2022-09-09T06:31:57;3.25;;;1.40;;
13785;SDS011;47474;48.824;9.384;2022-09-09T06:34:24;3.05;;;1.25;;
13785;SDS011;47474;48.824;9.384;2022-09-09T06:36:50;2.17;;;1.17;;
13785;SDS011;47474;48.824;9.384;2022-09-09T06:39:17;2.67;;;1.40;;
13785;SDS011;47474;48.824;9.384;2022-09-09T06:41:43;4.03;;;1.30;;
13785;SDS011;47474;48.824;9.384;2022-09-09T06:44:12;2.63;;;1.70;;
13785;SDS011;47474;48.824;9.384;2022-09-09T06:46:38;4.78;;;1.50;;
13785;SDS011;47474;48.824;9.384;2022-09-09T06:49:05;2.72;;;1.77;;
13785;SDS011;47474;48.824;9.384;2022-09-09T06:51:33;3.33;;;1.40;;
13785;SDS011;47474;48.824;9.384;2022-09-09T06:54:01;2.55;;;1.30;;
13785;SDS011;47474;48.824;9.384;2022-09-09T06:56:29;2.65;;;1.50;;
13785;SDS011;47474;48.824;9.384;2022-09-09T06:58:57;3.30;;;1.38;;
13785;SDS011;47474;48.824;9.384;2022-09-09T07:01:27;2.05;;;1.20;;
13785;SDS011;47474;48.824;9.384;2022-09-09T07:07:23;1.58;;;1.25;;
13785;SDS011;47474;48.824;9.384;2022-09-09T07:09:55;2.45;;;1.60;;
13785;SDS011;47474;48.824;9.384;2022-09-09T07:12:52;2.85;;;1.45;;
13785;SDS011;47474;48.824;9.384;2022-09-09T07:15:47;6.50;;;1.20;;
13785;SDS011;47474;48.824;9.384;2022-09-09T07:18:35;2.55;;;1.10;;
13785;SDS011;47474;48.824;9.384;2022-09-09T07:21:18;2.75;;;1.27;;
13785;SDS011;47474;48.824;9.384;2022-09-09T07:23:54;3.22;;;1.10;;
13785;SDS011;47474;48.824;9.384;2022-09-09T07:26:23;2.10;;;1.33;;
13785;SDS011;47474;48.824;9.384;2022-09-09T07:29:21;2.65;;;1.30;;
13785;SDS011;47474;48.824;9.384;2022-09-09T07:32:02;3.20;;;1.33;;
13785;SDS011;47474;48.824;9.384;2022-09-09T07:34:35;2.33;;;1.40;;
13785;SDS011;47474;48.824;9.384;2022-09-09T07:37:01;1.40;;;1.10;;
13785;SDS011;47474;48.824;9.384;2022-09-09T07:39:28;2.38;;;1.42;;
13785;SDS011;47474;48.824;9.384;2022-09-09T07:41:55;1.70;;;1.30;;
13785;SDS011;47474;48.824;9.384;2022-09-09T07:52:08;1.52;;;1.33;;
13785;SDS011;47474;48.824;9.384;2022-09-09T07:54:35;1.67;;;1.10;;
13785;SDS011;47474;48.824;9.384;2022-09-09T07:58:08;2.03;;;1.23;;
13785;SDS011;47474;48.824;9.384;2022-09-09T08:01:36;3.33;;;1.10;;
13785;SDS011;47474;48.824;9.384;2022-09-09T08:11:06;1.95;;;1.10;;
13785;SDS011;47474;48.824;9.384;2022-09-09T08:13:37;3.00;;;1.38;;
13785;SDS011;47474;48.824;9.384;2022-09-09T08:16:40;2.15;;;1.27;;
13785;SDS011;47474;48.824;9.384;2022-09-09T08:19:38;2.53;;;1.50;;
13785;SDS011;47474;48.824;9.384;2022-09-09T08:22:30;4.88;;;1.40;;
13785;SDS011;47474;48.824;9.384;2022-09-09T08:24:56;4.30;;;1.02;;
13785;SDS011;47474;48.824;9.384;2022-09-09T08:30:52;2.17;;;1.10;;
13785;SDS011;47474;48.824;9.384;2022-09-09T08:33:52;1.35;;;1.00;;
13785;SDS011;47474;48.824;9.384;2022-09-09T08:39:46;1.67;;;1.10;;
13785;SDS011;47474;48.824;9.384;2022-09-09T08:46:25;1.10;;;1.00;;
13785;SDS011;47474;48.824;9.384;2022-09-09T08:52:31;0.85;;;0.85;;
13785;SDS011;47474;48.824;9.384;2022-09-09T08:55:15;2.22;;;0.90;;
13785;SDS011;47474;48.824;9.384;2022-09-09T08:58:25;1.42;;;1.00;;
13785;SDS011;47474;48.824;9.384;2022-09-09T09:04:19;2.25;;;1.25;;
13785;SDS011;47474;48.824;9.384;2022-09-09T09:06:55;3.92;;;1.33;;
13785;SDS011;47474;48.824;9.384;2022-09-09T09:09:50;4.18;;;1.20;;
13785;SDS011;47474;48.824;9.384;2022-09-09T09:12:25;9.32;;;2.00;;
13785;SDS011;47474;48.824;9.384;2022-09-09T09:14:54;2.33;;;1.00;;
13785;SDS011;47474;48.824;9.384;2022-09-09T09:21:12;2.20;;;1.25;;
13785;SDS011;47474;48.824;9.384;2022-09-09T09:23:45;2.58;;;1.33;;
13785;SDS011;47474;48.824;9.384;2022-09-09T09:26:16;3.20;;;1.23;;
13785;SDS011;47474;48.824;9.384;2022-09-09T09:28:48;2.47;;;1.08;;
13785;SDS011;47474;48.824;9.384;2022-09-09T09:31:29;1.55;;;0.90;;
13785;SDS011;47474;48.824;9.384;2022-09-09T09:40:49;1.77;;;0.88;;
13785;SDS011;47474;48.824;9.384;2022-09-09T09:43:21;1.67;;;1.20;;
13785;SDS011;47474;48.824;9.384;2022-09-09T09:45:51;3.20;;;1.00;;
13785;SDS011;47474;48.824;9.384;2022-09-09T09:48:18;3.13;;;1.20;;
13785;SDS011;47474;48.824;9.384;2022-09-09T09:51:15;1.40;;;1.02;;
13785;SDS011;47474;48.824;9.384;2022-09-09T09:54:26;2.47;;;0.70;;
13785;SDS011;47474;48.824;9.384;2022-09-09T09:57:45;3.45;;;0.65;;
13785;SDS011;47474;48.824;9.384;2022-09-09T10:00:34;1.30;;;0.88;;
13785;SDS011;47474;48.824;9.384;2022-09-09T10:03:30;1.05;;;0.60;;
13785;SDS011;47474;48.824;9.384;2022-09-09T10:06:10;2.20;;;0.75;;
13785;SDS011;47474;48.824;9.384;2022-09-09T10:08:44;1.83;;;0.60;;
13785;SDS011;47474;48.824;9.384;2022-09-09T10:11:22;2.90;;;0.75;;
13785;SDS011;47474;48.824;9.384;2022-09-09T10:13:57;1.00;;;0.70;;
13785;SDS011;47474;48.824;9.384;2022-09-09T10:16:35;3.20;;;0.60;;
13785;SDS011;47474;48.824;9.384;2022-09-09T10:19:09;1.70;;;0.80;;
13785;SDS011;47474;48.824;9.384;2022-09-09T10:21:48;1.33;;;0.55;;
13785;SDS011;47474;48.824;9.384;2022-09-09T10:27:12;1.77;;;1.35;;
13785;SDS011;47474;48.824;9.384;2022-09-09T10:29:50;0.80;;;0.70;;
13785;SDS011;47474;48.824;9.384;2022-09-09T10:32:32;1.75;;;0.70;;
13785;SDS011;47474;48.824;9.384;2022-09-09T10:35:04;2.70;;;0.88;;
13785;SDS011;47474;48.824;9.384;2022-09-09T10:37:40;2.38;;;0.77;;
13785;SDS011;47474;48.824;9.384;2022-09-09T10:40:16;2.70;;;0.60;;
13785;SDS011;47474;48.824;9.384;2022-09-09T10:42:51;0.98;;;0.80;;
13785;SDS011;47474;48.824;9.384;2022-09-09T10:45:22;5.25;;;1.13;;
13785;SDS011;47474;48.824;9.384;2022-09-09T10:47:57;1.23;;;0.70;;
13785;SDS011;47474;48.824;9.384;2022-09-09T10:50:49;3.55;;;1.02;;
13785;SDS011;47474;48.824;9.384;2022-09-09T10:53:21;1.88;;;0.90;;
13785;SDS011;47474;48.824;9.384;2022-09-09T10:56:00;3.55;;;1.10;;
13785;SDS011;47474;48.824;9.384;2022-09-09T11:08:21;1.40;;;0.88;;
13785;SDS011;47474;48.824;9.384;2022-09-09T11:11:47;1.73;;;0.70;;
13785;SDS011;47474;48.824;9.384;2022-09-09T11:14:32;1.75;;;1.15;;
13785;SDS011;47474;48.824;9.384;2022-09-09T11:17:03;5.25;;;1.13;;
13785;SDS011;47474;48.824;9.384;2022-09-09T11:19:42;2.70;;;1.00;;
13785;SDS011;47474;48.824;9.384;2022-09-09T11:22:43;2.85;;;1.17;;
13785;SDS011;47474;48.824;9.384;2022-09-09T11:25:14;1.65;;;0.90;;
13785;SDS011;47474;48.824;9.384;2022-09-09T11:41:35;1.95;;;1.02;;
13785;SDS011;47474;48.824;9.384;2022-09-09T11:44:12;2.10;;;0.70;;
13785;SDS011;47474;48.824;9.384;2022-09-09T11:46:51;1.42;;;0.60;;
13785;SDS011;47474;48.824;9.384;2022-09-09T11:52:42;1.85;;;0.73;;
13785;SDS011;47474;48.824;9.384;2022-09-09T12:00:38;2.70;;;0.90;;
13785;SDS011;47474;48.824;9.384;2022-09-09T12:03:39;4.07;;;1.20;;
13785;SDS011;47474;48.824;9.384;2022-09-09T12:06:09;2.00;;;1.05;;
13785;SDS011;47474;48.824;9.384;2022-09-09T12:08:39;5.32;;;1.02;;
13785;SDS011;47474;48.824;9.384;2022-09-09T12:11:08;2.38;;;1.00;;
13785;SDS011;47474;48.824;9.384;2022-09-09T12:13:41;2.08;;;1.15;;
13785;SDS011;47474;48.824;9.384;2022-09-09T12:16:28;2.75;;;1.50;;
13785;SDS011;47474;48.824;9.384;2022-09-09T12:19:12;1.17;;;1.02;;
13785;SDS011;47474;48.824;9.384;2022-09-09T12:21:45;2.92;;;0.70;;
13785;SDS011;47474;48.824;9.384;2022-09-09T12:24:18;0.68;;;0.57;;
13785;SDS011;47474;48.824;9.384;2022-09-09T12:26:47;1.67;;;0.70;;
13785;SDS011;47474;48.824;9.384;2022-09-09T12:29:21;1.00;;;0.90;;
13785;SDS011;47474;48.824;9.384;2022-09-09T12:31:54;1.90;;;0.60;;
13785;SDS011;47474;48.824;9.384;2022-09-09T12:34:35;0.52;;;0.52;;
13785;SDS011;47474;48.824;9.384;2022-09-09T12:37:08;0.60;;;0.60;;
13785;SDS011;47474;48.824;9.384;2022-09-09T12:39:43;2.53;;;0.52;;
13785;SDS011;47474;48.824;9.384;2022-09-09T12:42:18;1.77;;;0.60;;
13785;SDS011;47474;48.824;9.384;2022-09-09T12:44:53;0.63;;;0.60;;
13785;SDS011;47474;48.824;9.384;2022-09-09T12:47:25;0.88;;;0.40;;
13785;SDS011;47474;48.824;9.384;2022-09-09T12:50:00;0.52;;;0.43;;
13785;SDS011;47474;48.824;9.384;2022-09-09T12:52:29;3.08;;;0.90;;
13785;SDS011;47474;48.824;9.384;2022-09-09T12:54:58;1.35;;;0.80;;
13785;SDS011;47474;48.824;9.384;2022-09-09T12:57:28;0.80;;;0.70;;
13785;SDS011;47474;48.824;9.384;2022-09-09T13:00:04;1.00;;;1.00;;
13785;SDS011;47474;48.824;9.384;2022-09-09T13:02:33;0.85;;;0.60;;
13785;SDS011;47474;48.824;9.384;2022-09-09T13:05:06;1.20;;;0.60;;
13785;SDS011;47474;48.824;9.384;2022-09-09T13:07:35;1.75;;;0.70;;
13785;SDS011;47474;48.824;9.384;2022-09-09T13:10:02;1.45;;;0.50;;
13785;SDS011;47474;48.824;9.384;2022-09-09T13:12:29;0.70;;;0.70;;
13785;SDS011;47474;48.824;9.384;2022-09-09T13:14:56;0.90;;;0.57;;
13785;SDS011;47474;48.824;9.384;2022-09-09T13:17:27;3.38;;;0.77;;
13785;SDS011;47474;48.824;9.384;2022-09-09T13:19:56;0.98;;;0.60;;
13785;SDS011;47474;48.824;9.384;2022-09-09T13:22:26;0.88;;;0.60;;
13785;SDS011;47474;48.824;9.384;2022-09-09T13:24:59;2.35;;;0.80;;
13785;SDS011;47474;48.824;9.384;2022-09-09T13:27:31;0.70;;;0.70;;
13785;SDS011;47474;48.824;9.384;2022-09-09T13:29:59;3.67;;;0.93;;
13785;SDS011;47474;48.824;9.384;2022-09-09T13:32:26;2.15;;;0.60;;
13785;SDS011;47474;48.824;9.384;2022-09-09T13:34:58;0.75;;;0.73;;
13785;SDS011;47474;48.824;9.384;2022-09-09T13:37:44;0.80;;;0.50;;
13785;SDS011;47474;48.824;9.384;2022-09-09T13:40:18;1.17;;;0.55;;
13785;SDS011;47474;48.824;9.384;2022-09-09T13:42:51;0.80;;;0.65;;
13785;SDS011;47474;48.824;9.384;2022-09-09T13:48:30;0.70;;;0.55;;
13785;SDS011;47474;48.824;9.384;2022-09-09T13:50:59;0.80;;;0.50;;
13785;SDS011;47474;48.824;9.384;2022-09-09T13:53:28;1.45;;;0.70;;
13785;SDS011;47474;48.824;9.384;2022-09-09T13:55:55;1.42;;;0.82;;
13785;SDS011;47474;48.824;9.384;2022-09-09T13:58:26;0.70;;;0.60;;
13785;SDS011;47474;48.824;9.384;2022-09-09T14:01:04;1.33;;;0.55;;
13785;SDS011;47474;48.824;9.384;2022-09-09T14:03:30;0.55;;;0.50;;
13785;SDS011;47474;48.824;9.384;2022-09-09T14:05:59;1.15;;;0.60;;
13785;SDS011;47474;48.824;9.384;2022-09-09T14:08:26;1.90;;;0.90;;
13785;SDS011;47474;48.824;9.384;2022-09-09T14:10:53;1.55;;;0.60;;
13785;SDS011;47474;48.824;9.384;2022-09-09T14:13:24;0.82;;;0.60;;
13785;SDS011;47474;48.824;9.384;2022-09-09T14:15:51;1.63;;;0.47;;
13785;SDS011;47474;48.824;9.384;2022-09-09T14:18:17;1.15;;;0.70;;
13785;SDS011;47474;48.824;9.384;2022-09-09T14:20:44;1.25;;;0.57;;
13785;SDS011;47474;48.824;9.384;2022-09-09T14:23:12;1.55;;;0.57;;
13785;SDS011;47474;48.824;9.384;2022-09-09T14:25:39;0.80;;;0.68;;
13785;SDS011;47474;48.824;9.384;2022-09-09T14:28:08;1.55;;;0.70;;
13785;SDS011;47474;48.824;9.384;2022-09-09T14:30:36;0.65;;;0.40;;
13785;SDS011;47474;48.824;9.384;2022-09-09T14:33:03;1.25;;;0.65;;
13785;SDS011;47474;48.824;9.384;2022-09-09T14:35:30;2.70;;;0.82;;
13785;SDS011;47474;48.824;9.384;2022-09-09T14:37:58;2.03;;;0.60;;
13785;SDS011;47474;48.824;9.384;2022-09-09T14:40:26;0.80;;;0.45;;
13785;SDS011;47474;48.824;9.384;2022-09-09T14:42:53;1.10;;;0.43;;
13785;SDS011;47474;48.824;9.384;2022-09-09T14:45:21;1.67;;;0.60;;
13785;SDS011;47474;48.824;9.384;2022-09-09T14:47:49;1.02;;;0.60;;
13785;SDS011;47474;48.824;9.384;2022-09-09T14:50:16;0.88;;;0.60;;
13785;SDS011;47474;48.824;9.384;2022-09-09T14:52:43;1.75;;;0.43;;
13785;SDS011;47474;48.824;9.384;2022-09-09T14:55:09;1.60;;;0.57;;
13785;SDS011;47474;48.824;9.384;2022-09-09T14:57:37;1.17;;;0.82;;
13785;SDS011;47474;48.824;9.384;2022-09-09T15:00:05;1.52;;;0.70;;
13785;SDS011;47474;48.824;9.384;2022-09-09T15:02:33;1.92;;;0.80;;
13785;SDS011;47474;48.824;9.384;2022-09-09T15:05:00;2.88;;;0.80;;
13785;SDS011;47474;48.824;9.384;2022-09-09T15:07:26;3.05;;;1.65;;
13785;SDS011;47474;48.824;9.384;2022-09-09T15:09:53;3.67;;;1.00;;
13785;SDS011;47474;48.824;9.384;2022-09-09T15:12:20;0.80;;;0.80;;
13785;SDS011;47474;48.824;9.384;2022-09-09T15:14:48;1.98;;;0.75;;
13785;SDS011;47474;48.824;9.384;2022-09-09T15:17:15;1.08;;;0.70;;
13785;SDS011;47474;48.824;9.384;2022-09-09T15:19:42;0.55;;;0.30;;
13785;SDS011;47474;48.824;9.384;2022-09-09T15:22:08;0.47;;;0.40;;
13785;SDS011;47474;48.824;9.384;2022-09-09T15:24:35;0.80;;;0.50;;
13785;SDS011;47474;48.824;9.384;2022-09-09T15:27:01;2.78;;;0.70;;
13785;SDS011;47474;48.824;9.384;2022-09-09T15:29:28;1.67;;;0.43;;
13785;SDS011;47474;48.824;9.384;2022-09-09T15:31:56;0.82;;;0.68;;
13785;SDS011;47474;48.824;9.384;2022-09-09T15:34:22;0.88;;;0.50;;
13785;SDS011;47474;48.824;9.384;2022-09-09T15:36:50;1.20;;;0.55;;
13785;SDS011;47474;48.824;9.384;2022-09-09T15:39:17;1.35;;;0.50;;
13785;SDS011;47474;48.824;9.384;2022-09-09T15:41:44;2.75;;;0.70;;
13785;SDS011;47474;48.824;9.384;2022-09-09T15:44:11;1.00;;;0.63;;
13785;SDS011;47474;48.824;9.384;2022-09-09T15:46:39;1.88;;;0.60;;
13785;SDS011;47474;48.824;9.384;2022-09-09T15:49:08;1.48;;;0.70;;
13785;SDS011;47474;48.824;9.384;2022-09-09T15:51:36;1.00;;;0.50;;
13785;SDS011;47474;48.824;9.384;2022-09-09T15:54:04;1.83;;;0.55;;
13785;SDS011;47474;48.824;9.384;2022-09-09T15:56:30;0.85;;;0.50;;
13785;SDS011;47474;48.824;9.384;2022-09-09T15:58:57;2.05;;;0.93;;
13785;SDS011;47474;48.824;9.384;2022-09-09T16:01:24;1.48;;;0.90;;
13785;SDS011;47474;48.824;9.384;2022-09-09T16:03:51;1.23;;;0.68;;
13785;SDS011;47474;48.824;9.384;2022-09-09T16:06:20;0.68;;;0.50;;
13785;SDS011;47474;48.824;9.384;2022-09-09T16:08:49;1.27;;;0.63;;
13785;SDS011;47474;48.824;9.384;2022-09-09T16:11:17;0.85;;;0.73;;
13785;SDS011;47474;48.824;9.384;2022-09-09T16:13:46;1.88;;;0.70;;
13785;SDS011;47474;48.824;9.384;2022-09-09T16:16:13;0.50;;;0.50;;
13785;SDS011;47474;48.824;9.384;2022-09-09T16:18:42;0.60;;;0.60;;
13785;SDS011;47474;48.824;9.384;2022-09-09T16:21:11;0.55;;;0.50;;
13785;SDS011;47474;48.824;9.384;2022-09-09T16:23:41;2.38;;;0.70;;
13785;SDS011;47474;48.824;9.384;2022-09-09T16:26:09;2.63;;;0.70;;
13785;SDS011;47474;48.824;9.384;2022-09-09T16:28:37;1.92;;;0.55;;
13785;SDS011;47474;48.824;9.384;2022-09-09T16:31:04;1.13;;;0.55;;
13785;SDS011;47474;48.824;9.384;2022-09-09T16:33:31;2.25;;;0.70;;
13785;SDS011;47474;48.824;9.384;2022-09-09T16:35:57;2.63;;;0.98;;
13785;SDS011;47474;48.824;9.384;2022-09-09T16:38:24;2.28;;;0.70;;
13785;SDS011;47474;48.824;9.384;2022-09-09T16:40:52;1.45;;;0.90;;
13785;SDS011;47474;48.824;9.384;2022-09-09T16:43:25;0.60;;;0.60;;